sensor_id;sensor_type;location;lat;lon;timestamp;P1;durP1;ratioP1;P2;durP2;ratioP2
10248;SDS011;5169;50.560;9.714;2022-08-01T00:01:21;2.80;;;2.07;;
10248;SDS011;5169;50.560;9.714;2022-08-01T00:03:46;3.50;;;2.30;;
10248;SDS011;5169;50.560;9.714;2022-08-01T00:06:12;2.40;;;2.20;;
10248;SDS011;5169;50.560;9.714;2022-08-01T00:08:38;3.77;;;2.50;;
10248;SDS011;5169;50.560;9.714;2022-08-01T00:11:04;2.43;;;2.23;;
10248;SDS011;5169;50.560;9.714;2022-08-01T00:13:29;2.90;;;2.40;;
10248;SDS011;5169;50.560;9.714;2022-08-01T00:15:55;2.40;;;2.20;;
10248;SDS011;5169;50.560;9.714;2022-08-01T00:18:23;4.00;;;2.50;;
10248;SDS011;5169;50.560;9.714;2022-08-01T00:20:49;4.87;;;2.50;;
10248;SDS011;5169;50.560;9.714;2022-08-01T00:23:15;3.10;;;2.20;;
10248;SDS011;5169;50.560;9.714;2022-08-01T00:25:40;3.30;;;2.30;;
10248;SDS011;5169;50.560;9.714;2022-08-01T00:28:06;3.03;;;2.30;;
10248;SDS011;5169;50.560;9.714;2022-08-01T00:30:34;3.57;;;2.17;;
10248;SDS011;5169;50.560;9.714;2022-08-01T00:33:00;2.50;;;2.17;;
10248;SDS011;5169;50.560;9.714;2022-08-01T00:35:26;2.40;;;2.20;;
10248;SDS011;5169;50.560;9.714;2022-08-01T00:37:51;3.40;;;2.30;;
10248;SDS011;5169;50.560;9.714;2022-08-01T00:40:19;3.50;;;2.10;;
10248;SDS011;5169;50.560;9.714;2022-08-01T00:42:45;2.40;;;2.20;;
10248;SDS011;5169;50.560;9.714;2022-08-01T00:45:11;3.40;;;2.37;;
10248;SDS011;5169;50.560;9.714;2022-08-01T00:47:39;2.30;;;2.10;;
10248;SDS011;5169;50.560;9.714;2022-08-01T00:50:05;2.90;;;2.20;;
10248;SDS011;5169;50.560;9.714;2022-08-01T00:52:32;2.40;;;2.20;;
10248;SDS011;5169;50.560;9.714;2022-08-01T00:54:59;4.10;;;2.10;;
10248;SDS011;5169;50.560;9.714;2022-08-01T00:57:25;2.33;;;2.10;;
10248;SDS011;5169;50.560;9.714;2022-08-01T00:59:52;2.20;;;2.00;;
10248;SDS011;5169;50.560;9.714;2022-08-01T01:02:18;5.20;;;2.40;;
10248;SDS011;5169;50.560;9.714;2022-08-01T01:04:44;2.90;;;2.20;;
10248;SDS011;5169;50.560;9.714;2022-08-01T01:07:22;2.20;;;2.00;;
10248;SDS011;5169;50.560;9.714;2022-08-01T01:10:35;2.33;;;2.00;;
10248;SDS011;5169;50.560;9.714;2022-08-01T01:15:47;3.67;;;2.10;;
10248;SDS011;5169;50.560;9.714;2022-08-01T01:18:20;3.53;;;2.00;;
10248;SDS011;5169;50.560;9.714;2022-08-01T01:20:51;2.57;;;1.90;;
10248;SDS011;5169;50.560;9.714;2022-08-01T01:29:17;3.53;;;2.03;;
10248;SDS011;5169;50.560;9.714;2022-08-01T01:31:59;2.30;;;2.10;;
10248;SDS011;5169;50.560;9.714;2022-08-01T01:34:29;2.40;;;2.20;;
10248;SDS011;5169;50.560;9.714;2022-08-01T01:36:59;2.27;;;2.03;;
10248;SDS011;5169;50.560;9.714;2022-08-01T01:39:29;2.60;;;2.30;;
10248;SDS011;5169;50.560;9.714;2022-08-01T01:41:57;2.60;;;2.40;;
10248;SDS011;5169;50.560;9.714;2022-08-01T01:44:27;2.40;;;2.20;;
10248;SDS011;5169;50.560;9.714;2022-08-01T01:46:55;3.10;;;2.53;;
10248;SDS011;5169;50.560;9.714;2022-08-01T01:49:23;3.10;;;2.40;;
10248;SDS011;5169;50.560;9.714;2022-08-01T01:51:51;2.40;;;2.20;;
10248;SDS011;5169;50.560;9.714;2022-08-01T01:54:20;2.70;;;2.30;;
10248;SDS011;5169;50.560;9.714;2022-08-01T01:56:54;2.87;;;2.47;;
10248;SDS011;5169;50.560;9.714;2022-08-01T01:59:26;2.77;;;2.40;;
10248;SDS011;5169;50.560;9.714;2022-08-01T02:01:55;2.50;;;2.30;;
10248;SDS011;5169;50.560;9.714;2022-08-01T02:04:24;2.73;;;2.53;;
10248;SDS011;5169;50.560;9.714;2022-08-01T02:06:51;3.33;;;2.53;;
10248;SDS011;5169;50.560;9.714;2022-08-01T02:09:18;3.80;;;2.70;;
10248;SDS011;5169;50.560;9.714;2022-08-01T02:11:47;3.50;;;2.50;;
10248;SDS011;5169;50.560;9.714;2022-08-01T02:14:14;2.50;;;2.30;;
10248;SDS011;5169;50.560;9.714;2022-08-01T02:16:42;3.43;;;2.70;;
10248;SDS011;5169;50.560;9.714;2022-08-01T02:19:12;3.27;;;2.70;;
10248;SDS011;5169;50.560;9.714;2022-08-01T02:21:44;3.80;;;3.00;;
10248;SDS011;5169;50.560;9.714;2022-08-01T02:24:19;3.60;;;2.90;;
10248;SDS011;5169;50.560;9.714;2022-08-01T02:26:52;3.30;;;3.00;;
10248;SDS011;5169;50.560;9.714;2022-08-01T02:29:42;4.30;;;3.90;;
10248;SDS011;5169;50.560;9.714;2022-08-01T02:32:16;6.37;;;4.30;;
10248;SDS011;5169;50.560;9.714;2022-08-01T02:35:11;5.00;;;4.20;;
10248;SDS011;5169;50.560;9.714;2022-08-01T02:37:43;5.50;;;4.10;;
10248;SDS011;5169;50.560;9.714;2022-08-01T02:40:11;8.37;;;4.33;;
10248;SDS011;5169;50.560;9.714;2022-08-01T02:42:38;4.43;;;3.97;;
10248;SDS011;5169;50.560;9.714;2022-08-01T02:45:07;6.47;;;4.93;;
10248;SDS011;5169;50.560;9.714;2022-08-01T02:47:35;5.27;;;4.50;;
10248;SDS011;5169;50.560;9.714;2022-08-01T02:50:05;5.67;;;4.70;;
10248;SDS011;5169;50.560;9.714;2022-08-01T02:52:33;4.53;;;4.07;;
10248;SDS011;5169;50.560;9.714;2022-08-01T02:55:03;4.73;;;4.30;;
10248;SDS011;5169;50.560;9.714;2022-08-01T02:57:30;5.80;;;4.60;;
10248;SDS011;5169;50.560;9.714;2022-08-01T03:00:00;5.40;;;4.80;;
10248;SDS011;5169;50.560;9.714;2022-08-01T03:02:26;4.87;;;4.20;;
10248;SDS011;5169;50.560;9.714;2022-08-01T03:04:56;4.60;;;4.20;;
10248;SDS011;5169;50.560;9.714;2022-08-01T03:07:24;4.40;;;4.03;;
10248;SDS011;5169;50.560;9.714;2022-08-01T03:09:55;4.87;;;4.17;;
10248;SDS011;5169;50.560;9.714;2022-08-01T03:12:26;4.00;;;3.60;;
10248;SDS011;5169;50.560;9.714;2022-08-01T03:14:56;5.60;;;3.37;;
10248;SDS011;5169;50.560;9.714;2022-08-01T03:17:24;4.47;;;3.63;;
10248;SDS011;5169;50.560;9.714;2022-08-01T03:19:53;3.83;;;3.50;;
10248;SDS011;5169;50.560;9.714;2022-08-01T03:22:23;5.77;;;5.23;;
10248;SDS011;5169;50.560;9.714;2022-08-01T03:24:52;4.90;;;4.20;;
10248;SDS011;5169;50.560;9.714;2022-08-01T03:27:19;4.57;;;4.10;;
10248;SDS011;5169;50.560;9.714;2022-08-01T03:29:47;4.80;;;4.33;;
10248;SDS011;5169;50.560;9.714;2022-08-01T03:32:14;5.23;;;4.70;;
10248;SDS011;5169;50.560;9.714;2022-08-01T03:34:41;4.23;;;3.83;;
10248;SDS011;5169;50.560;9.714;2022-08-01T03:40:00;4.43;;;3.90;;
10248;SDS011;5169;50.560;9.714;2022-08-01T03:42:35;4.23;;;3.83;;
10248;SDS011;5169;50.560;9.714;2022-08-01T03:45:07;4.27;;;3.87;;
10248;SDS011;5169;50.560;9.714;2022-08-01T03:47:35;5.57;;;4.07;;
10248;SDS011;5169;50.560;9.714;2022-08-01T03:50:03;4.53;;;3.83;;
10248;SDS011;5169;50.560;9.714;2022-08-01T03:52:31;5.13;;;4.50;;
10248;SDS011;5169;50.560;9.714;2022-08-01T03:54:59;4.33;;;3.93;;
10248;SDS011;5169;50.560;9.714;2022-08-01T03:57:30;5.70;;;4.30;;
10248;SDS011;5169;50.560;9.714;2022-08-01T03:59:57;6.20;;;4.30;;
10248;SDS011;5169;50.560;9.714;2022-08-01T04:02:26;5.40;;;4.47;;
10248;SDS011;5169;50.560;9.714;2022-08-01T04:04:55;4.23;;;3.93;;
10248;SDS011;5169;50.560;9.714;2022-08-01T04:07:25;6.23;;;4.30;;
10248;SDS011;5169;50.560;9.714;2022-08-01T04:09:54;4.33;;;3.93;;
10248;SDS011;5169;50.560;9.714;2022-08-01T04:12:20;4.47;;;3.77;;
10248;SDS011;5169;50.560;9.714;2022-08-01T04:14:49;4.63;;;4.23;;
10248;SDS011;5169;50.560;9.714;2022-08-01T04:17:15;4.63;;;3.73;;
10248;SDS011;5169;50.560;9.714;2022-08-01T04:19:42;4.27;;;3.87;;
10248;SDS011;5169;50.560;9.714;2022-08-01T04:22:16;5.70;;;5.20;;
10248;SDS011;5169;50.560;9.714;2022-08-01T04:24:46;5.30;;;4.77;;
10248;SDS011;5169;50.560;9.714;2022-08-01T04:27:14;5.97;;;5.13;;
10248;SDS011;5169;50.560;9.714;2022-08-01T04:29:47;6.13;;;5.07;;
10248;SDS011;5169;50.560;9.714;2022-08-01T04:32:16;5.43;;;4.13;;
10248;SDS011;5169;50.560;9.714;2022-08-01T04:34:45;5.53;;;4.87;;
10248;SDS011;5169;50.560;9.714;2022-08-01T04:37:12;4.73;;;4.23;;
10248;SDS011;5169;50.560;9.714;2022-08-01T04:39:46;4.97;;;4.57;;
10248;SDS011;5169;50.560;9.714;2022-08-01T04:42:16;5.50;;;4.97;;
10248;SDS011;5169;50.560;9.714;2022-08-01T04:44:42;5.93;;;4.40;;
10248;SDS011;5169;50.560;9.714;2022-08-01T04:47:08;6.10;;;4.20;;
10248;SDS011;5169;50.560;9.714;2022-08-01T04:49:34;5.63;;;3.90;;
10248;SDS011;5169;50.560;9.714;2022-08-01T04:52:00;4.90;;;4.00;;
10248;SDS011;5169;50.560;9.714;2022-08-01T04:54:30;5.03;;;3.90;;
10248;SDS011;5169;50.560;9.714;2022-08-01T04:57:02;4.30;;;3.90;;
10248;SDS011;5169;50.560;9.714;2022-08-01T04:59:37;5.57;;;3.83;;
10248;SDS011;5169;50.560;9.714;2022-08-01T05:02:07;5.13;;;4.10;;
10248;SDS011;5169;50.560;9.714;2022-08-01T05:04:34;4.80;;;4.30;;
10248;SDS011;5169;50.560;9.714;2022-08-01T05:07:00;5.47;;;4.90;;
10248;SDS011;5169;50.560;9.714;2022-08-01T05:09:26;6.70;;;4.93;;
10248;SDS011;5169;50.560;9.714;2022-08-01T05:11:52;6.63;;;4.90;;
10248;SDS011;5169;50.560;9.714;2022-08-01T05:14:18;5.80;;;5.23;;
10248;SDS011;5169;50.560;9.714;2022-08-01T05:16:44;5.83;;;5.33;;
10248;SDS011;5169;50.560;9.714;2022-08-01T05:19:12;6.23;;;5.33;;
10248;SDS011;5169;50.560;9.714;2022-08-01T05:21:38;5.93;;;4.90;;
10248;SDS011;5169;50.560;9.714;2022-08-01T05:24:06;8.27;;;5.80;;
10248;SDS011;5169;50.560;9.714;2022-08-01T05:26:32;6.03;;;5.17;;
10248;SDS011;5169;50.560;9.714;2022-08-01T05:28:58;6.97;;;5.53;;
10248;SDS011;5169;50.560;9.714;2022-08-01T05:31:24;7.50;;;5.73;;
10248;SDS011;5169;50.560;9.714;2022-08-01T05:33:50;7.23;;;6.00;;
10248;SDS011;5169;50.560;9.714;2022-08-01T05:36:15;6.57;;;5.90;;
10248;SDS011;5169;50.560;9.714;2022-08-01T05:38:44;6.60;;;6.00;;
10248;SDS011;5169;50.560;9.714;2022-08-01T05:41:12;6.60;;;5.87;;
10248;SDS011;5169;50.560;9.714;2022-08-01T05:43:37;7.00;;;5.87;;
10248;SDS011;5169;50.560;9.714;2022-08-01T05:46:06;7.27;;;6.17;;
10248;SDS011;5169;50.560;9.714;2022-08-01T05:48:31;6.93;;;5.90;;
10248;SDS011;5169;50.560;9.714;2022-08-01T05:50:57;6.13;;;5.53;;
10248;SDS011;5169;50.560;9.714;2022-08-01T05:53:23;5.13;;;4.63;;
10248;SDS011;5169;50.560;9.714;2022-08-01T05:55:48;4.87;;;4.47;;
10248;SDS011;5169;50.560;9.714;2022-08-01T05:58:14;5.03;;;4.43;;
10248;SDS011;5169;50.560;9.714;2022-08-01T06:00:40;6.80;;;4.53;;
10248;SDS011;5169;50.560;9.714;2022-08-01T06:03:06;5.50;;;5.00;;
10248;SDS011;5169;50.560;9.714;2022-08-01T06:05:31;4.83;;;4.43;;
10248;SDS011;5169;50.560;9.714;2022-08-01T06:07:57;5.60;;;5.03;;
10248;SDS011;5169;50.560;9.714;2022-08-01T06:10:27;8.00;;;5.47;;
10248;SDS011;5169;50.560;9.714;2022-08-01T06:12:53;6.63;;;5.23;;
10248;SDS011;5169;50.560;9.714;2022-08-01T06:15:18;7.37;;;5.17;;
10248;SDS011;5169;50.560;9.714;2022-08-01T06:17:44;6.70;;;5.10;;
10248;SDS011;5169;50.560;9.714;2022-08-01T06:20:10;6.63;;;5.90;;
10248;SDS011;5169;50.560;9.714;2022-08-01T06:22:36;6.27;;;5.67;;
10248;SDS011;5169;50.560;9.714;2022-08-01T06:25:02;7.63;;;5.40;;
10248;SDS011;5169;50.560;9.714;2022-08-01T06:27:32;6.30;;;5.57;;
10248;SDS011;5169;50.560;9.714;2022-08-01T06:30:02;6.73;;;6.03;;
10248;SDS011;5169;50.560;9.714;2022-08-01T06:32:28;7.27;;;5.97;;
10248;SDS011;5169;50.560;9.714;2022-08-01T06:34:54;6.27;;;5.67;;
10248;SDS011;5169;50.560;9.714;2022-08-01T06:37:20;6.03;;;5.43;;
10248;SDS011;5169;50.560;9.714;2022-08-01T06:39:46;6.70;;;5.20;;
10248;SDS011;5169;50.560;9.714;2022-08-01T06:42:14;5.50;;;5.00;;
10248;SDS011;5169;50.560;9.714;2022-08-01T06:44:42;6.97;;;5.20;;
10248;SDS011;5169;50.560;9.714;2022-08-01T06:47:08;5.90;;;5.30;;
10248;SDS011;5169;50.560;9.714;2022-08-01T06:49:33;5.20;;;4.70;;
10248;SDS011;5169;50.560;9.714;2022-08-01T06:51:59;5.57;;;5.07;;
10248;SDS011;5169;50.560;9.714;2022-08-01T06:54:28;5.30;;;4.80;;
10248;SDS011;5169;50.560;9.714;2022-08-01T06:56:54;6.47;;;4.57;;
10248;SDS011;5169;50.560;9.714;2022-08-01T06:59:19;4.87;;;4.37;;
10248;SDS011;5169;50.560;9.714;2022-08-01T07:01:45;5.83;;;4.53;;
10248;SDS011;5169;50.560;9.714;2022-08-01T07:04:11;4.60;;;4.20;;
10248;SDS011;5169;50.560;9.714;2022-08-01T07:06:36;4.63;;;4.00;;
10248;SDS011;5169;50.560;9.714;2022-08-01T07:09:04;4.47;;;4.03;;
10248;SDS011;5169;50.560;9.714;2022-08-01T07:11:32;4.53;;;4.10;;
10248;SDS011;5169;50.560;9.714;2022-08-01T07:13:58;5.07;;;4.20;;
10248;SDS011;5169;50.560;9.714;2022-08-01T07:16:25;5.23;;;4.53;;
10248;SDS011;5169;50.560;9.714;2022-08-01T07:18:53;6.93;;;4.93;;
10248;SDS011;5169;50.560;9.714;2022-08-01T07:21:20;5.20;;;4.70;;
10248;SDS011;5169;50.560;9.714;2022-08-01T07:23:46;5.30;;;4.80;;
10248;SDS011;5169;50.560;9.714;2022-08-01T07:26:11;6.17;;;4.83;;
10248;SDS011;5169;50.560;9.714;2022-08-01T07:28:39;5.03;;;4.63;;
10248;SDS011;5169;50.560;9.714;2022-08-01T07:31:09;4.97;;;4.47;;
10248;SDS011;5169;50.560;9.714;2022-08-01T07:33:35;5.03;;;4.53;;
10248;SDS011;5169;50.560;9.714;2022-08-01T07:36:03;4.50;;;4.10;;
10248;SDS011;5169;50.560;9.714;2022-08-01T07:38:31;4.73;;;4.13;;
10248;SDS011;5169;50.560;9.714;2022-08-01T07:40:57;7.87;;;4.30;;
10248;SDS011;5169;50.560;9.714;2022-08-01T07:43:25;5.27;;;4.20;;
10248;SDS011;5169;50.560;9.714;2022-08-01T07:45:50;4.13;;;3.73;;
10248;SDS011;5169;50.560;9.714;2022-08-01T07:48:16;4.40;;;4.00;;
10248;SDS011;5169;50.560;9.714;2022-08-01T07:50:51;4.00;;;3.60;;
10248;SDS011;5169;50.560;9.714;2022-08-01T07:53:18;3.87;;;3.57;;
10248;SDS011;5169;50.560;9.714;2022-08-01T07:55:44;4.17;;;3.57;;
10248;SDS011;5169;50.560;9.714;2022-08-01T07:58:10;4.90;;;3.33;;
10248;SDS011;5169;50.560;9.714;2022-08-01T08:00:36;3.87;;;3.43;;
10248;SDS011;5169;50.560;9.714;2022-08-01T08:03:02;3.57;;;3.27;;
10248;SDS011;5169;50.560;9.714;2022-08-01T08:05:27;3.83;;;3.53;;
10248;SDS011;5169;50.560;9.714;2022-08-01T08:07:55;3.90;;;3.60;;
10248;SDS011;5169;50.560;9.714;2022-08-01T08:10:21;3.53;;;3.23;;
10248;SDS011;5169;50.560;9.714;2022-08-01T08:12:47;4.10;;;3.30;;
10248;SDS011;5169;50.560;9.714;2022-08-01T08:15:13;3.90;;;3.50;;
10248;SDS011;5169;50.560;9.714;2022-08-01T08:17:39;4.03;;;3.63;;
10248;SDS011;5169;50.560;9.714;2022-08-01T08:20:05;3.73;;;3.43;;
10248;SDS011;5169;50.560;9.714;2022-08-01T08:22:34;4.23;;;3.40;;
10248;SDS011;5169;50.560;9.714;2022-08-01T08:25:00;3.50;;;3.20;;
10248;SDS011;5169;50.560;9.714;2022-08-01T08:27:26;3.53;;;3.23;;
10248;SDS011;5169;50.560;9.714;2022-08-01T08:29:52;5.20;;;3.13;;
10248;SDS011;5169;50.560;9.714;2022-08-01T08:32:17;3.60;;;3.10;;
10248;SDS011;5169;50.560;9.714;2022-08-01T08:34:43;3.23;;;2.70;;
10248;SDS011;5169;50.560;9.714;2022-08-01T08:37:11;4.17;;;3.10;;
10248;SDS011;5169;50.560;9.714;2022-08-01T08:39:37;3.60;;;3.30;;
10248;SDS011;5169;50.560;9.714;2022-08-01T08:42:06;3.47;;;3.23;;
10248;SDS011;5169;50.560;9.714;2022-08-01T08:44:33;3.43;;;3.07;;
10248;SDS011;5169;50.560;9.714;2022-08-01T08:47:00;3.20;;;3.00;;
10248;SDS011;5169;50.560;9.714;2022-08-01T08:49:30;3.67;;;3.37;;
10248;SDS011;5169;50.560;9.714;2022-08-01T08:51:59;3.63;;;3.33;;
10248;SDS011;5169;50.560;9.714;2022-08-01T08:54:29;4.60;;;3.53;;
10248;SDS011;5169;50.560;9.714;2022-08-01T08:56:59;3.93;;;3.63;;
10248;SDS011;5169;50.560;9.714;2022-08-01T08:59:26;5.40;;;3.57;;
10248;SDS011;5169;50.560;9.714;2022-08-01T09:01:56;3.83;;;3.53;;
10248;SDS011;5169;50.560;9.714;2022-08-01T09:04:22;4.77;;;4.30;;
10248;SDS011;5169;50.560;9.714;2022-08-01T09:06:51;4.87;;;4.47;;
10248;SDS011;5169;50.560;9.714;2022-08-01T09:09:21;5.57;;;4.23;;
10248;SDS011;5169;50.560;9.714;2022-08-01T09:11:50;4.43;;;4.03;;
10248;SDS011;5169;50.560;9.714;2022-08-01T09:14:17;6.10;;;4.30;;
10248;SDS011;5169;50.560;9.714;2022-08-01T09:17:02;4.63;;;4.23;;
10248;SDS011;5169;50.560;9.714;2022-08-01T09:19:37;4.50;;;4.03;;
10248;SDS011;5169;50.560;9.714;2022-08-01T09:22:08;4.87;;;4.40;;
10248;SDS011;5169;50.560;9.714;2022-08-01T09:24:35;5.27;;;4.80;;
10248;SDS011;5169;50.560;9.714;2022-08-01T09:27:14;5.13;;;4.60;;
10248;SDS011;5169;50.560;9.714;2022-08-01T09:29:50;5.03;;;4.53;;
10248;SDS011;5169;50.560;9.714;2022-08-01T09:32:17;4.70;;;4.30;;
10248;SDS011;5169;50.560;9.714;2022-08-01T09:34:43;4.90;;;4.40;;
10248;SDS011;5169;50.560;9.714;2022-08-01T09:37:11;5.17;;;4.77;;
10248;SDS011;5169;50.560;9.714;2022-08-01T09:39:42;5.20;;;4.70;;
10248;SDS011;5169;50.560;9.714;2022-08-01T09:42:25;5.13;;;4.73;;
10248;SDS011;5169;50.560;9.714;2022-08-01T09:44:55;5.10;;;4.63;;
10248;SDS011;5169;50.560;9.714;2022-08-01T09:47:36;6.03;;;4.37;;
10248;SDS011;5169;50.560;9.714;2022-08-01T09:50:03;5.47;;;4.97;;
10248;SDS011;5169;50.560;9.714;2022-08-01T09:52:29;5.50;;;4.60;;
10248;SDS011;5169;50.560;9.714;2022-08-01T09:54:58;5.13;;;4.73;;
10248;SDS011;5169;50.560;9.714;2022-08-01T09:57:30;5.27;;;4.67;;
10248;SDS011;5169;50.560;9.714;2022-08-01T09:59:57;5.47;;;4.90;;
10248;SDS011;5169;50.560;9.714;2022-08-01T10:05:05;6.03;;;5.10;;
10248;SDS011;5169;50.560;9.714;2022-08-01T10:07:32;6.33;;;5.07;;
10248;SDS011;5169;50.560;9.714;2022-08-01T10:10:12;5.20;;;4.70;;
10248;SDS011;5169;50.560;9.714;2022-08-01T10:12:38;6.00;;;5.40;;
10248;SDS011;5169;50.560;9.714;2022-08-01T10:15:06;5.63;;;4.90;;
10248;SDS011;5169;50.560;9.714;2022-08-01T10:17:36;5.47;;;4.57;;
10248;SDS011;5169;50.560;9.714;2022-08-01T10:20:07;5.60;;;4.70;;
10248;SDS011;5169;50.560;9.714;2022-08-01T10:22:36;5.10;;;4.55;;
10248;SDS011;5169;50.560;9.714;2022-08-01T10:25:03;5.87;;;4.50;;
10248;SDS011;5169;50.560;9.714;2022-08-01T10:27:32;4.65;;;4.25;;
10248;SDS011;5169;50.560;9.714;2022-08-01T10:30:02;5.10;;;4.53;;
10248;SDS011;5169;50.560;9.714;2022-08-01T10:32:30;4.40;;;4.00;;
10248;SDS011;5169;50.560;9.714;2022-08-01T10:34:56;4.68;;;4.28;;
10248;SDS011;5169;50.560;9.714;2022-08-01T10:37:23;3.60;;;3.30;;
10248;SDS011;5169;50.560;9.714;2022-08-01T10:39:53;3.90;;;3.38;;
10248;SDS011;5169;50.560;9.714;2022-08-01T10:42:19;3.95;;;3.20;;
10248;SDS011;5169;50.560;9.714;2022-08-01T10:44:47;3.65;;;3.30;;
10248;SDS011;5169;50.560;9.714;2022-08-01T10:47:14;4.88;;;4.40;;
10248;SDS011;5169;50.560;9.714;2022-08-01T10:49:45;5.47;;;4.97;;
10248;SDS011;5169;50.560;9.714;2022-08-01T10:52:17;4.97;;;4.57;;
10248;SDS011;5169;50.560;9.714;2022-08-01T10:54:43;5.05;;;4.65;;
10248;SDS011;5169;50.560;9.714;2022-08-01T10:57:12;5.32;;;4.82;;
10248;SDS011;5169;50.560;9.714;2022-08-01T10:59:51;5.18;;;4.55;;
10248;SDS011;5169;50.560;9.714;2022-08-01T11:02:31;3.97;;;3.65;;
10248;SDS011;5169;50.560;9.714;2022-08-01T11:05:09;3.50;;;3.20;;
10248;SDS011;5169;50.560;9.714;2022-08-01T11:13:02;3.00;;;2.72;;
10248;SDS011;5169;50.560;9.714;2022-08-01T11:15:36;2.83;;;2.38;;
10248;SDS011;5169;50.560;9.714;2022-08-01T11:21:00;4.10;;;3.05;;
10248;SDS011;5169;50.560;9.714;2022-08-01T11:23:28;3.72;;;3.05;;
10248;SDS011;5169;50.560;9.714;2022-08-01T11:28:20;4.32;;;3.50;;
10248;SDS011;5169;50.560;9.714;2022-08-01T11:30:51;4.63;;;3.80;;
10248;SDS011;5169;50.560;9.714;2022-08-01T11:38:37;4.38;;;3.55;;
10248;SDS011;5169;50.560;9.714;2022-08-01T11:54:42;4.40;;;3.60;;
10248;SDS011;5169;50.560;9.714;2022-08-01T11:57:19;4.03;;;3.25;;
10248;SDS011;5169;50.560;9.714;2022-08-01T11:59:50;3.53;;;3.22;;
10248;SDS011;5169;50.560;9.714;2022-08-01T12:05:02;3.35;;;3.05;;
10248;SDS011;5169;50.560;9.714;2022-08-01T12:07:40;3.28;;;2.72;;
10248;SDS011;5169;50.560;9.714;2022-08-01T12:10:10;2.95;;;2.47;;
10248;SDS011;5169;50.560;9.714;2022-08-01T12:12:45;2.17;;;1.98;;
10248;SDS011;5169;50.560;9.714;2022-08-01T12:15:13;2.85;;;2.53;;
10248;SDS011;5169;50.560;9.714;2022-08-01T12:17:46;2.08;;;1.98;;
10248;SDS011;5169;50.560;9.714;2022-08-01T12:20:15;2.50;;;2.30;;
10248;SDS011;5169;50.560;9.714;2022-08-01T12:22:44;3.17;;;2.38;;
10248;SDS011;5169;50.560;9.714;2022-08-01T12:25:10;2.88;;;2.45;;
10248;SDS011;5169;50.560;9.714;2022-08-01T12:27:41;3.00;;;2.70;;
10248;SDS011;5169;50.560;9.714;2022-08-01T12:30:08;3.97;;;2.42;;
10248;SDS011;5169;50.560;9.714;2022-08-01T12:32:40;3.10;;;2.80;;
10248;SDS011;5169;50.560;9.714;2022-08-01T12:37:42;2.50;;;2.30;;
10248;SDS011;5169;50.560;9.714;2022-08-01T12:40:14;2.75;;;2.55;;
10248;SDS011;5169;50.560;9.714;2022-08-01T12:43:07;3.20;;;2.60;;
10248;SDS011;5169;50.560;9.714;2022-08-01T12:48:07;2.42;;;2.22;;
10248;SDS011;5169;50.560;9.714;2022-08-01T12:50:38;3.08;;;2.78;;
10248;SDS011;5169;50.560;9.714;2022-08-01T12:53:07;2.80;;;2.60;;
10248;SDS011;5169;50.560;9.714;2022-08-01T12:55:40;2.50;;;2.30;;
10248;SDS011;5169;50.560;9.714;2022-08-01T12:58:19;2.85;;;2.30;;
10248;SDS011;5169;50.560;9.714;2022-08-01T13:00:46;3.10;;;2.70;;
10248;SDS011;5169;50.560;9.714;2022-08-01T13:03:16;2.20;;;2.10;;
10248;SDS011;5169;50.560;9.714;2022-08-01T13:08:11;2.80;;;2.33;;
10248;SDS011;5169;50.560;9.714;2022-08-01T13:10:41;2.42;;;2.22;;
10248;SDS011;5169;50.560;9.714;2022-08-01T13:13:07;2.72;;;2.40;;
10248;SDS011;5169;50.560;9.714;2022-08-01T13:15:37;4.70;;;2.47;;
10248;SDS011;5169;50.560;9.714;2022-08-01T13:18:24;2.60;;;2.20;;
10248;SDS011;5169;50.560;9.714;2022-08-01T13:21:10;4.72;;;2.60;;
10248;SDS011;5169;50.560;9.714;2022-08-01T13:23:41;2.58;;;2.20;;
10248;SDS011;5169;50.560;9.714;2022-08-01T13:29:08;2.67;;;2.47;;
10248;SDS011;5169;50.560;9.714;2022-08-01T13:31:35;3.00;;;2.55;;
10248;SDS011;5169;50.560;9.714;2022-08-01T13:34:02;2.67;;;2.47;;
10248;SDS011;5169;50.560;9.714;2022-08-01T13:36:28;3.17;;;2.55;;
10248;SDS011;5169;50.560;9.714;2022-08-01T13:38:56;3.03;;;2.70;;
10248;SDS011;5169;50.560;9.714;2022-08-01T13:41:44;2.67;;;2.33;;
10248;SDS011;5169;50.560;9.714;2022-08-01T13:44:11;2.40;;;2.20;;
10248;SDS011;5169;50.560;9.714;2022-08-01T13:46:38;2.45;;;2.25;;
10248;SDS011;5169;50.560;9.714;2022-08-01T13:49:05;2.95;;;2.58;;
10248;SDS011;5169;50.560;9.714;2022-08-01T13:51:32;4.45;;;2.55;;
10248;SDS011;5169;50.560;9.714;2022-08-01T13:53:58;3.95;;;2.60;;
10248;SDS011;5169;50.560;9.714;2022-08-01T13:56:24;2.60;;;2.40;;
10248;SDS011;5169;50.560;9.714;2022-08-01T13:58:52;2.58;;;2.38;;
10248;SDS011;5169;50.560;9.714;2022-08-01T14:01:19;3.83;;;2.42;;
10248;SDS011;5169;50.560;9.714;2022-08-01T14:03:45;2.95;;;2.55;;
10248;SDS011;5169;50.560;9.714;2022-08-01T14:06:11;3.00;;;2.70;;
10248;SDS011;5169;50.560;9.714;2022-08-01T14:08:37;3.63;;;2.75;;
10248;SDS011;5169;50.560;9.714;2022-08-01T14:11:03;4.78;;;3.13;;
10248;SDS011;5169;50.560;9.714;2022-08-01T14:13:29;3.60;;;3.30;;
10248;SDS011;5169;50.560;9.714;2022-08-01T14:15:58;5.22;;;3.22;;
10248;SDS011;5169;50.560;9.714;2022-08-01T14:18:27;3.70;;;3.40;;
10248;SDS011;5169;50.560;9.714;2022-08-01T14:20:53;3.60;;;3.30;;
10248;SDS011;5169;50.560;9.714;2022-08-01T14:23:18;3.85;;;3.55;;
10248;SDS011;5169;50.560;9.714;2022-08-01T14:25:44;3.80;;;3.50;;
10248;SDS011;5169;50.560;9.714;2022-08-01T14:28:12;3.72;;;3.38;;
10248;SDS011;5169;50.560;9.714;2022-08-01T14:30:40;3.47;;;3.17;;
10248;SDS011;5169;50.560;9.714;2022-08-01T14:33:10;3.38;;;3.08;;
10248;SDS011;5169;50.560;9.714;2022-08-01T14:35:36;3.50;;;3.20;;
10248;SDS011;5169;50.560;9.714;2022-08-01T14:38:02;3.38;;;3.00;;
10248;SDS011;5169;50.560;9.714;2022-08-01T14:40:28;6.50;;;3.30;;
10248;SDS011;5169;50.560;9.714;2022-08-01T14:42:54;4.10;;;2.80;;
10248;SDS011;5169;50.560;9.714;2022-08-01T14:45:22;3.05;;;2.85;;
10248;SDS011;5169;50.560;9.714;2022-08-01T14:47:50;3.53;;;3.22;;
10248;SDS011;5169;50.560;9.714;2022-08-01T14:50:16;3.42;;;3.10;;
10248;SDS011;5169;50.560;9.714;2022-08-01T14:52:42;4.97;;;3.30;;
10248;SDS011;5169;50.560;9.714;2022-08-01T14:55:11;3.80;;;3.50;;
10248;SDS011;5169;50.560;9.714;2022-08-01T14:57:37;4.00;;;3.30;;
10248;SDS011;5169;50.560;9.714;2022-08-01T15:00:05;4.70;;;3.33;;
10248;SDS011;5169;50.560;9.714;2022-08-01T15:02:35;4.20;;;3.70;;
10248;SDS011;5169;50.560;9.714;2022-08-01T15:05:01;5.82;;;3.78;;
10248;SDS011;5169;50.560;9.714;2022-08-01T15:07:27;4.65;;;3.45;;
10248;SDS011;5169;50.560;9.714;2022-08-01T15:09:54;3.80;;;3.50;;
10248;SDS011;5169;50.560;9.714;2022-08-01T15:12:21;4.15;;;3.83;;
10248;SDS011;5169;50.560;9.714;2022-08-01T15:14:46;3.85;;;3.55;;
10248;SDS011;5169;50.560;9.714;2022-08-01T15:19:50;3.60;;;3.30;;
10248;SDS011;5169;50.560;9.714;2022-08-01T15:22:17;4.22;;;3.72;;
10248;SDS011;5169;50.560;9.714;2022-08-01T15:24:44;4.07;;;3.78;;
10248;SDS011;5169;50.560;9.714;2022-08-01T15:27:09;5.10;;;3.67;;
10248;SDS011;5169;50.560;9.714;2022-08-01T15:29:38;3.92;;;3.58;;
10248;SDS011;5169;50.560;9.714;2022-08-01T15:32:04;4.15;;;3.75;;
10248;SDS011;5169;50.560;9.714;2022-08-01T15:34:31;3.55;;;3.20;;
10248;SDS011;5169;50.560;9.714;2022-08-01T15:36:57;3.72;;;3.42;;
10248;SDS011;5169;50.560;9.714;2022-08-01T15:39:23;5.22;;;3.50;;
10248;SDS011;5169;50.560;9.714;2022-08-01T15:41:49;3.90;;;2.97;;
10248;SDS011;5169;50.560;9.714;2022-08-01T15:44:15;4.00;;;3.00;;
10248;SDS011;5169;50.560;9.714;2022-08-01T15:46:45;3.70;;;3.40;;
10248;SDS011;5169;50.560;9.714;2022-08-01T15:49:14;3.53;;;3.22;;
10248;SDS011;5169;50.560;9.714;2022-08-01T15:51:40;3.20;;;3.00;;
10248;SDS011;5169;50.560;9.714;2022-08-01T15:54:06;2.90;;;2.58;;
10248;SDS011;5169;50.560;9.714;2022-08-01T15:56:33;4.15;;;3.15;;
10248;SDS011;5169;50.560;9.714;2022-08-01T15:58:59;2.95;;;2.65;;
10248;SDS011;5169;50.560;9.714;2022-08-01T16:01:25;3.53;;;3.22;;
10248;SDS011;5169;50.560;9.714;2022-08-01T16:03:51;6.53;;;3.50;;
10248;SDS011;5169;50.560;9.714;2022-08-01T16:06:18;4.30;;;3.45;;
10248;SDS011;5169;50.560;9.714;2022-08-01T16:08:44;3.97;;;3.47;;